createdAt,value
2022-12-04T00:00:38.198Z,14.13
2022-12-04T00:03:28.008Z,14.83
2022-12-04T00:06:17.914Z,14.23
2022-12-04T00:09:06.542Z,13.40
2022-12-04T00:11:55.160Z,13.43
2022-12-04T00:15:16.581Z,13.40
2022-12-04T00:17:51.929Z,14.07
2022-12-04T00:20:41.938Z,13.50
2022-12-04T00:23:30.261Z,13.30
2022-12-04T00:26:20.858Z,13.53
2022-12-04T00:29:09.215Z,14.73
2022-12-04T00:31:58.297Z,12.63
2022-12-04T00:34:46.941Z,15.33
2022-12-04T00:37:36.694Z,13.33
2022-12-04T00:40:25.186Z,14.33
2022-12-04T00:43:13.593Z,13.73
2022-12-04T00:46:02.431Z,15.27
2022-12-04T00:48:50.959Z,15.57
2022-12-04T00:51:40.153Z,15.40
2022-12-04T00:54:29.859Z,15.30
2022-12-04T00:57:18.252Z,15.00
2022-12-04T01:00:08.617Z,14.50
2022-12-04T01:02:57.045Z,15.57
2022-12-04T01:05:46.300Z,13.17
2022-12-04T01:08:34.930Z,14.03
2022-12-04T01:11:25.323Z,14.60
2022-12-04T01:14:13.810Z,15.07
2022-12-04T01:17:02.312Z,14.27
2022-12-04T01:19:50.748Z,13.73
2022-12-04T01:22:39.681Z,12.33
2022-12-04T01:25:28.071Z,13.03
2022-12-04T01:28:17.832Z,15.77
2022-12-04T01:31:08.278Z,12.80
2022-12-04T01:33:56.643Z,13.03
2022-12-04T01:36:45.165Z,12.47
2022-12-04T01:39:33.512Z,13.33
2022-12-04T01:42:22.198Z,13.60
2022-12-04T01:45:40.535Z,12.40
2022-12-04T01:48:31.914Z,12.00
2022-12-04T01:51:22.054Z,12.77
2022-12-04T01:54:13.045Z,14.00
2022-12-04T01:57:03.378Z,12.20
2022-12-04T01:59:53.972Z,12.27
2022-12-04T02:02:46.636Z,14.03
2022-12-04T02:05:35.118Z,14.57
2022-12-04T02:08:23.501Z,13.37
2022-12-04T02:11:21.823Z,11.47
2022-12-04T02:14:17.683Z,12.63
2022-12-04T02:17:12.640Z,13.50
2022-12-04T02:20:15.181Z,13.03
2022-12-04T02:23:45.951Z,12.93
2022-12-04T02:26:42.651Z,12.60
2022-12-04T02:29:38.107Z,13.00
2022-12-04T02:32:32.018Z,12.30
2022-12-04T02:35:24.263Z,14.03
2022-12-04T02:38:18.116Z,14.53
2022-12-04T02:41:09.746Z,15.30
2022-12-04T02:43:59.113Z,14.70
2022-12-04T02:46:50.230Z,14.37
2022-12-04T02:49:39.921Z,15.17
2022-12-04T02:52:32.865Z,15.90
2022-12-04T02:55:23.642Z,14.97
2022-12-04T02:58:14.565Z,14.77
2022-12-04T03:01:04.581Z,13.87
2022-12-04T03:03:58.495Z,14.13
2022-12-04T03:06:49.657Z,13.67
2022-12-04T03:09:39.057Z,14.20
2022-12-04T03:12:29.845Z,14.80
2022-12-04T03:15:21.032Z,14.50
2022-12-04T03:18:16.010Z,13.27
2022-12-04T03:21:08.600Z,13.67
2022-12-04T03:23:59.858Z,13.03
2022-12-04T03:26:49.132Z,13.93
2022-12-04T03:29:41.520Z,14.47
2022-12-04T03:32:32.703Z,14.63
2022-12-04T03:35:24.050Z,12.47
2022-12-04T03:38:17.629Z,11.63
2022-12-04T03:41:09.391Z,12.13
2022-12-04T03:44:01.317Z,10.93
2022-12-04T03:46:53.433Z,12.03
2022-12-04T03:49:47.171Z,11.83
2022-12-04T03:52:38.845Z,11.27
2022-12-04T03:55:31.734Z,12.17
2022-12-04T03:58:22.413Z,11.60
2022-12-04T04:01:11.634Z,11.23
2022-12-04T04:04:00.230Z,9.37
2022-12-04T04:06:51.465Z,10.40
2022-12-04T04:09:42.342Z,10.80
2022-12-04T04:12:34.088Z,10.80
2022-12-04T04:15:40.427Z,11.40
2022-12-04T04:18:47.205Z,11.10
2022-12-04T04:21:53.146Z,10.07
2022-12-04T04:24:44.582Z,10.07
2022-12-04T04:27:34.347Z,9.80
2022-12-04T04:30:22.763Z,10.73
2022-12-04T04:33:14.151Z,10.67
2022-12-04T04:36:07.335Z,10.37
2022-12-04T04:39:01.921Z,10.63
2022-12-04T04:41:52.406Z,10.10
2022-12-04T04:44:46.117Z,9.03
2022-12-04T04:47:38.322Z,10.10
2022-12-04T04:50:26.712Z,10.90
2022-12-04T04:53:18.634Z,10.23
2022-12-04T04:56:07.989Z,11.40
2022-12-04T04:58:56.409Z,9.73
2022-12-04T05:01:46.905Z,10.83
2022-12-04T05:04:35.379Z,9.43
2022-12-04T05:07:23.770Z,10.17
2022-12-04T05:10:12.263Z,10.80
2022-12-04T05:13:00.646Z,8.60
2022-12-04T05:15:58.028Z,9.33
2022-12-04T05:19:01.758Z,9.30
2022-12-04T05:21:50.272Z,8.80
2022-12-04T05:24:38.725Z,8.67
2022-12-04T05:27:27.879Z,8.80
2022-12-04T05:30:17.986Z,9.07
2022-12-04T05:33:06.440Z,9.30
2022-12-04T05:36:00.085Z,11.40
2022-12-04T05:38:48.462Z,8.67
2022-12-04T05:41:36.852Z,10.10
2022-12-04T05:44:25.360Z,10.20
2022-12-04T05:47:13.863Z,7.53
2022-12-04T05:50:02.366Z,9.50
2022-12-04T05:52:52.114Z,9.60
2022-12-04T05:55:40.507Z,8.27
2022-12-04T05:58:28.974Z,8.60
2022-12-04T06:01:19.081Z,9.53
2022-12-04T06:04:07.506Z,8.20
2022-12-04T06:06:55.964Z,10.10
2022-12-04T06:09:45.975Z,9.57
2022-12-04T06:12:34.472Z,8.13
2022-12-04T06:15:22.881Z,8.47
2022-12-04T06:18:11.655Z,8.50
2022-12-04T06:21:00.130Z,8.23
2022-12-04T06:23:48.719Z,8.77
2022-12-04T06:26:51.983Z,9.27
2022-12-04T06:29:47.148Z,8.10
2022-12-04T06:32:35.562Z,8.17
2022-12-04T06:35:23.959Z,8.00
2022-12-04T06:38:13.170Z,9.63
2022-12-04T06:41:04.023Z,8.30
2022-12-04T06:43:53.837Z,8.50
2022-12-04T06:46:46.489Z,7.83
2022-12-04T06:49:36.151Z,8.77
2022-12-04T06:52:24.565Z,9.93
2022-12-04T06:55:13.000Z,9.43
2022-12-04T06:58:01.422Z,9.33
2022-12-04T07:00:51.241Z,8.60
2022-12-04T07:03:39.929Z,9.87
2022-12-04T07:06:15.999Z,8.13
2022-12-04T07:08:44.212Z,7.97
2022-12-04T07:11:12.619Z,8.10
2022-12-04T07:13:41.011Z,9.73
2022-12-04T07:16:12.913Z,9.47
2022-12-04T07:18:41.502Z,9.37
2022-12-04T07:21:12.381Z,8.60
2022-12-04T07:23:40.542Z,8.60
2022-12-04T07:26:09.354Z,8.97
2022-12-04T07:28:37.744Z,9.03
2022-12-04T07:31:06.598Z,9.80
2022-12-04T07:33:36.165Z,8.90
2022-12-04T07:36:06.273Z,7.97
2022-12-04T07:38:34.905Z,8.43
2022-12-04T07:41:03.914Z,9.13
2022-12-04T07:43:32.290Z,8.17
2022-12-04T07:46:00.772Z,8.70
2022-12-04T07:48:33.338Z,10.40
2022-12-04T07:51:07.957Z,8.10
2022-12-04T07:53:36.241Z,8.87
2022-12-04T07:56:04.761Z,10.20
2022-12-04T07:58:32.925Z,8.33
2022-12-04T08:01:08.202Z,10.37
2022-12-04T08:03:36.532Z,8.97
2022-12-04T08:06:06.683Z,9.47
2022-12-04T08:08:35.330Z,7.60
2022-12-04T08:11:06.499Z,9.40
2022-12-04T08:13:34.685Z,8.23
2022-12-04T08:16:03.445Z,10.03
2022-12-04T08:18:31.807Z,10.07
2022-12-04T08:21:06.706Z,8.47
2022-12-04T08:23:35.113Z,9.20
2022-12-04T08:26:03.569Z,9.83
2022-12-04T08:28:32.033Z,10.33
2022-12-04T08:31:04.473Z,8.67
2022-12-04T08:33:32.860Z,10.13
2022-12-04T08:36:01.033Z,8.53
2022-12-04T08:38:30.541Z,7.60
2022-12-04T08:41:01.421Z,8.70
2022-12-04T08:43:29.638Z,9.23
2022-12-04T08:45:58.603Z,9.70
2022-12-04T08:48:26.987Z,13.03
2022-12-04T08:50:55.493Z,11.83
2022-12-04T08:53:23.970Z,10.17
2022-12-04T08:55:53.780Z,15.83
2022-12-04T08:58:22.314Z,12.90
2022-12-04T09:00:50.599Z,9.73
2022-12-04T09:03:26.066Z,9.83
2022-12-04T09:05:59.834Z,9.23
2022-12-04T09:08:28.121Z,9.33
2022-12-04T09:11:02.945Z,10.23
2022-12-04T09:13:31.241Z,10.40
2022-12-04T09:15:59.629Z,9.50
2022-12-04T09:18:27.912Z,11.73
2022-12-04T09:20:59.604Z,9.63
2022-12-04T09:23:28.170Z,9.63
2022-12-04T09:25:57.744Z,9.13
2022-12-04T09:28:25.913Z,8.17
2022-12-04T09:31:00.960Z,9.63
2022-12-04T09:33:30.547Z,7.90
2022-12-04T09:36:01.067Z,9.40
2022-12-04T09:38:31.584Z,10.03
2022-12-04T09:41:04.452Z,8.43
2022-12-04T09:43:35.307Z,9.87
2022-12-04T09:46:09.152Z,8.07
2022-12-04T09:48:39.763Z,7.90
2022-12-04T09:51:07.961Z,9.53
2022-12-04T09:53:43.527Z,8.70
2022-12-04T09:56:14.560Z,10.93
2022-12-04T09:58:46.380Z,9.73
2022-12-04T10:01:22.502Z,10.53
2022-12-04T10:03:51.117Z,9.87
2022-12-04T10:06:22.323Z,10.90
2022-12-04T10:08:54.268Z,9.17
2022-12-04T10:11:32.500Z,9.60
2022-12-04T10:14:25.286Z,9.57
2022-12-04T10:17:14.602Z,7.53
2022-12-04T10:19:47.522Z,8.47
2022-12-04T10:22:19.481Z,8.10
2022-12-04T10:24:49.176Z,9.00
2022-12-04T10:27:22.819Z,10.13
2022-12-04T10:29:56.336Z,8.50
2022-12-04T10:32:28.053Z,9.93
2022-12-04T10:34:59.623Z,12.47
2022-12-04T10:37:27.921Z,17.37
2022-12-04T10:39:58.736Z,13.30
2022-12-04T10:42:33.837Z,8.97
2022-12-04T10:45:02.201Z,10.30
2022-12-04T10:47:31.083Z,10.37
2022-12-04T10:50:02.153Z,9.70
2022-12-04T10:52:30.449Z,11.17
2022-12-04T10:55:00.172Z,11.47
2022-12-04T10:57:38.881Z,15.63
2022-12-04T11:00:25.480Z,11.73
2022-12-04T11:02:53.990Z,14.10
2022-12-04T11:05:28.073Z,12.30
2022-12-04T11:07:56.676Z,14.97
2022-12-04T11:10:31.903Z,13.33
2022-12-04T11:13:03.935Z,14.27
2022-12-04T11:15:32.421Z,14.97
2022-12-04T11:18:09.680Z,16.27
2022-12-04T11:20:38.676Z,16.23
2022-12-04T11:23:08.153Z,16.93
2022-12-04T11:25:39.497Z,13.17
2022-12-04T11:28:33.638Z,16.57
2022-12-04T11:31:03.494Z,15.93
2022-12-04T11:33:36.196Z,14.80
2022-12-04T11:36:09.155Z,14.00
2022-12-04T11:38:38.677Z,13.50
2022-12-04T11:41:06.907Z,16.67
2022-12-04T11:43:37.829Z,16.10
2022-12-04T11:46:07.556Z,15.17
2022-12-04T11:48:43.714Z,22.53
2022-12-04T11:51:17.391Z,15.33
2022-12-04T11:53:49.246Z,16.00
2022-12-04T11:56:25.470Z,20.37
2022-12-04T11:59:36.055Z,26.10
2022-12-04T12:02:16.855Z,16.33
2022-12-04T12:05:00.094Z,32.60
2022-12-04T12:07:40.203Z,84.43
2022-12-04T12:10:11.864Z,65.43
2022-12-04T12:12:50.896Z,33.57
2022-12-04T12:15:40.398Z,22.57
2022-12-04T12:18:38.608Z,21.13
2022-12-04T12:21:09.763Z,17.63
2022-12-04T12:23:55.991Z,21.57
2022-12-04T12:26:25.934Z,20.00
2022-12-04T12:29:15.302Z,19.60
2022-12-04T12:31:57.780Z,20.40
2022-12-04T12:34:33.314Z,19.80
2022-12-04T12:37:03.513Z,20.53
2022-12-04T12:39:36.184Z,19.47
2022-12-04T12:42:04.708Z,20.63
2022-12-04T12:44:36.630Z,22.00
2022-12-04T12:47:09.569Z,21.20
2022-12-04T12:49:41.074Z,20.80
2022-12-04T12:52:16.327Z,19.47
2022-12-04T12:54:49.075Z,19.63
2022-12-04T12:57:19.474Z,21.40
2022-12-04T12:59:50.105Z,21.07
2022-12-04T13:02:24.667Z,25.70
2022-12-04T13:04:54.572Z,28.20
2022-12-04T13:07:28.819Z,19.03
2022-12-04T13:10:03.121Z,19.73
2022-12-04T13:12:31.352Z,21.00
2022-12-04T13:14:59.655Z,21.03
2022-12-04T13:17:32.644Z,21.50
2022-12-04T13:20:04.144Z,18.00
2022-12-04T13:22:41.383Z,22.33
2022-12-04T13:25:23.415Z,23.43
2022-12-04T13:28:00.420Z,20.33
2022-12-04T13:30:32.026Z,24.30
2022-12-04T13:33:30.091Z,20.30
2022-12-04T13:36:25.711Z,19.30
2022-12-04T13:39:08.578Z,21.80
2022-12-04T13:41:38.992Z,22.30
2022-12-04T13:44:14.244Z,22.80
2022-12-04T13:46:43.768Z,20.27
2022-12-04T13:49:26.364Z,24.73
2022-12-04T13:51:54.932Z,21.33
2022-12-04T13:54:32.772Z,26.33
2022-12-04T13:57:19.563Z,27.10
2022-12-04T13:59:48.856Z,23.00
2022-12-04T14:02:27.677Z,25.73
2022-12-04T14:05:01.915Z,22.00
2022-12-04T14:07:32.515Z,24.93
2022-12-04T14:10:04.675Z,28.07
2022-12-04T14:12:35.939Z,32.27
2022-12-04T14:15:06.203Z,20.10
2022-12-04T14:17:35.408Z,23.73
2022-12-04T14:20:08.168Z,24.47
2022-12-04T14:22:44.583Z,22.40
2022-12-04T14:25:37.978Z,23.43
2022-12-04T14:28:26.105Z,22.40
2022-12-04T14:31:14.029Z,22.57
2022-12-04T14:33:45.523Z,23.40
2022-12-04T14:36:20.178Z,22.90
2022-12-04T14:38:49.839Z,24.73
2022-12-04T14:41:25.616Z,26.30
2022-12-04T14:43:53.828Z,22.47
2022-12-04T14:46:24.818Z,26.47
2022-12-04T14:48:57.607Z,26.37
2022-12-04T14:51:31.448Z,19.10
2022-12-04T14:54:04.427Z,22.57
2022-12-04T14:56:43.974Z,21.93
2022-12-04T14:59:17.450Z,22.00
2022-12-04T15:01:46.877Z,23.13
2022-12-04T15:04:20.140Z,22.33
2022-12-04T15:06:53.070Z,22.50
2022-12-04T15:09:42.633Z,20.23
2022-12-04T15:12:37.002Z,20.23
2022-12-04T15:15:14.896Z,18.63
2022-12-04T15:17:43.031Z,22.53
2022-12-04T15:20:15.639Z,20.10
2022-12-04T15:22:45.271Z,19.37
2022-12-04T15:25:19.408Z,27.33
2022-12-04T15:27:48.469Z,29.27
2022-12-04T15:30:18.963Z,23.87
2022-12-04T15:32:47.614Z,20.70
2022-12-04T15:35:20.179Z,20.97
2022-12-04T15:37:49.711Z,24.40
2022-12-04T15:40:22.982Z,32.33
2022-12-04T15:42:51.292Z,45.30
2022-12-04T15:45:31.846Z,23.07
2022-12-04T15:48:00.164Z,24.27
2022-12-04T15:50:31.123Z,25.97
2022-12-04T15:53:04.698Z,27.23
2022-12-04T15:55:36.021Z,25.97
2022-12-04T15:58:05.669Z,28.47
2022-12-04T16:00:36.212Z,22.20
2022-12-04T16:03:06.708Z,22.57
2022-12-04T16:05:37.243Z,20.57
2022-12-04T16:08:24.298Z,19.53
2022-12-04T16:11:05.167Z,20.03
2022-12-04T16:13:35.108Z,27.43
2022-12-04T16:16:06.602Z,21.83
2022-12-04T16:18:34.853Z,21.83
2022-12-04T16:21:03.170Z,19.87
2022-12-04T16:23:33.118Z,17.30
2022-12-04T16:26:01.261Z,18.97
2022-12-04T16:28:29.437Z,19.60
2022-12-04T16:30:57.643Z,19.60
2022-12-04T16:33:25.837Z,19.90
2022-12-04T16:35:53.966Z,18.90
2022-12-04T16:38:22.110Z,20.87
2022-12-04T16:40:52.148Z,25.63
2022-12-04T16:43:20.364Z,47.07
2022-12-04T16:45:50.263Z,24.30
2022-12-04T16:48:18.445Z,29.30
2022-12-04T16:50:46.884Z,26.67
2022-12-04T16:53:17.382Z,31.47
2022-12-04T16:55:47.188Z,28.70
2022-12-04T16:58:17.213Z,21.23
2022-12-04T17:00:47.206Z,24.20
2022-12-04T17:03:18.808Z,22.03
2022-12-04T17:05:47.159Z,20.10
2022-12-04T17:08:15.464Z,23.37
2022-12-04T17:10:43.713Z,19.17
2022-12-04T17:13:11.947Z,21.43
2022-12-04T17:15:41.782Z,21.73
2022-12-04T17:18:13.938Z,21.73
2022-12-04T17:20:44.928Z,20.13
2022-12-04T17:23:13.351Z,22.80
2022-12-04T17:25:41.565Z,21.77
2022-12-04T17:28:09.720Z,24.80
2022-12-04T17:30:37.962Z,23.57
2022-12-04T17:33:07.542Z,23.03
2022-12-04T17:35:35.704Z,22.80
2022-12-04T17:38:06.265Z,21.50
2022-12-04T17:40:34.742Z,21.20
2022-12-04T17:43:03.037Z,20.43
2022-12-04T17:45:31.279Z,23.10
2022-12-04T17:48:00.760Z,22.67
2022-12-04T17:50:30.277Z,19.73
2022-12-04T17:52:58.395Z,21.50
2022-12-04T17:55:26.675Z,18.63
2022-12-04T17:57:54.917Z,20.87
2022-12-04T18:00:23.545Z,19.60
2022-12-04T18:02:53.302Z,20.47
2022-12-04T18:05:22.037Z,21.50
2022-12-04T18:07:51.663Z,21.60
2022-12-04T18:10:19.868Z,21.50
2022-12-04T18:12:48.085Z,21.50
2022-12-04T18:15:16.370Z,19.57
2022-12-04T18:17:44.588Z,19.33
2022-12-04T18:20:13.735Z,16.77
2022-12-04T18:22:41.870Z,20.83
2022-12-04T18:25:11.668Z,17.47
2022-12-04T18:27:42.017Z,18.63
2022-12-04T18:30:11.878Z,17.83
2022-12-04T18:32:40.089Z,19.70
2022-12-04T18:35:09.329Z,19.40
2022-12-04T18:37:37.519Z,25.67
2022-12-04T18:40:07.723Z,18.17
2022-12-04T18:42:37.428Z,20.17
2022-12-04T18:45:06.626Z,21.43
2022-12-04T18:47:36.489Z,19.97
2022-12-04T18:50:04.817Z,20.43
2022-12-04T18:52:37.220Z,17.73
2022-12-04T18:55:06.062Z,18.37
2022-12-04T18:57:34.236Z,19.37
2022-12-04T19:00:04.303Z,18.07
2022-12-04T19:02:33.191Z,19.40
2022-12-04T19:05:01.325Z,18.77
2022-12-04T19:07:29.921Z,19.37
2022-12-04T19:10:13.524Z,20.63
2022-12-04T19:12:41.717Z,19.30
2022-12-04T19:15:12.197Z,18.93
2022-12-04T19:17:40.425Z,19.30
2022-12-04T19:20:10.788Z,20.27
2022-12-04T19:22:39.140Z,17.20
2022-12-04T19:25:08.633Z,16.63
2022-12-04T19:27:36.769Z,17.27
2022-12-04T19:30:06.922Z,18.70
2022-12-04T19:32:36.387Z,16.83
2022-12-04T19:35:04.984Z,18.80
2022-12-04T19:37:35.865Z,20.00
2022-12-04T19:40:09.348Z,22.13
2022-12-04T19:42:37.763Z,17.97
2022-12-04T19:45:06.921Z,17.70
2022-12-04T19:47:36.359Z,19.33
2022-12-04T19:50:04.671Z,21.20
2022-12-04T19:52:33.541Z,29.23
2022-12-04T19:55:01.691Z,22.37
2022-12-04T19:57:29.885Z,24.67
2022-12-04T19:59:58.212Z,23.57
2022-12-04T20:02:26.647Z,36.97
2022-12-04T20:04:56.133Z,25.70
2022-12-04T20:07:24.292Z,27.37
2022-12-04T20:09:52.884Z,26.90
2022-12-04T20:12:21.112Z,23.63
2022-12-04T20:14:49.247Z,21.40
2022-12-04T20:17:17.413Z,21.07
2022-12-04T20:19:45.545Z,22.47
2022-12-04T20:22:15.114Z,22.47
2022-12-04T20:24:43.784Z,21.53
2022-12-04T20:27:11.924Z,22.73
2022-12-04T20:29:40.004Z,22.33
2022-12-04T20:32:08.182Z,21.13
2022-12-04T20:34:43.087Z,20.80
2022-12-04T20:37:11.889Z,23.87
2022-12-04T20:39:41.485Z,22.87
2022-12-04T20:42:09.665Z,21.83
2022-12-04T20:44:37.859Z,30.73
2022-12-04T20:47:06.125Z,25.10
2022-12-04T20:49:34.382Z,23.80
2022-12-04T20:52:02.485Z,23.50
2022-12-04T20:54:30.686Z,24.60
2022-12-04T20:57:00.186Z,23.83
2022-12-04T20:59:28.303Z,24.50
2022-12-04T21:01:56.535Z,26.37
2022-12-04T21:04:43.323Z,22.43
2022-12-04T21:07:31.966Z,27.20
2022-12-04T21:10:20.624Z,24.00
2022-12-04T21:13:28.223Z,22.70
2022-12-04T21:16:16.750Z,26.20
2022-12-04T21:19:05.812Z,23.30
2022-12-04T21:21:54.592Z,26.23
2022-12-04T21:24:43.022Z,21.07
2022-12-04T21:27:31.517Z,22.30
2022-12-04T21:30:21.308Z,26.27
2022-12-04T21:33:09.706Z,27.17
2022-12-04T21:36:03.296Z,23.97
2022-12-04T21:38:51.710Z,28.87
2022-12-04T21:41:57.978Z,22.17
2022-12-04T21:44:46.723Z,25.80
2022-12-04T21:47:37.489Z,23.57
2022-12-04T21:50:25.891Z,26.10
2022-12-04T21:53:14.290Z,26.37
2022-12-04T21:56:03.234Z,33.47
2022-12-04T21:58:51.747Z,22.87
2022-12-04T22:01:40.176Z,22.77
2022-12-04T22:04:29.976Z,25.57
2022-12-04T22:07:18.386Z,24.03
2022-12-04T22:10:11.039Z,26.23
2022-12-04T22:12:59.711Z,27.97
2022-12-04T22:15:48.194Z,24.23
2022-12-04T22:18:36.647Z,25.33
2022-12-04T22:21:26.685Z,26.40
2022-12-04T22:24:15.165Z,26.40
2022-12-04T22:27:03.546Z,26.83
2022-12-04T22:29:51.939Z,25.60
2022-12-04T22:32:40.439Z,29.33
2022-12-04T22:35:28.841Z,28.53
2022-12-04T22:38:18.583Z,28.70
2022-12-04T22:41:11.157Z,28.40
2022-12-04T22:43:59.660Z,27.93
2022-12-04T22:46:48.143Z,30.40
2022-12-04T22:49:36.583Z,28.27
2022-12-04T22:52:25.393Z,29.17
2022-12-04T22:55:15.263Z,29.33
2022-12-04T22:58:03.661Z,26.13
2022-12-04T23:00:52.051Z,30.17
2022-12-04T23:03:40.496Z,29.20
2022-12-04T23:06:30.764Z,28.83
2022-12-04T23:09:19.707Z,31.43
2022-12-04T23:12:10.113Z,27.67
2022-12-04T23:14:58.529Z,27.37
2022-12-04T23:17:46.900Z,30.53
2022-12-04T23:20:35.321Z,30.33
2022-12-04T23:23:23.733Z,30.80
2022-12-04T23:26:15.801Z,28.50
2022-12-04T23:29:23.431Z,32.93
2022-12-04T23:32:14.416Z,30.20
2022-12-04T23:35:02.821Z,28.63
2022-12-04T23:37:51.210Z,31.17
2022-12-04T23:40:39.615Z,28.73
2022-12-04T23:43:28.042Z,32.20
2022-12-04T23:46:19.754Z,32.83
2022-12-04T23:49:08.287Z,27.80
2022-12-04T23:51:56.717Z,26.60
2022-12-04T23:54:45.142Z,25.63
2022-12-04T23:57:33.553Z,30.83
